Time;durP1;ratioP1;P1;durP2;ratioP2;P2;SDS_P1;SDS_P2;PMS_P1;PMS_P2;Temp;Humidity;BMP_temperature;BMP_pressure;BME280_temperature;BME280_humidity;BME280_pressure;Samples;Min_cycle;Max_cycle;Signal;HPM_P1;HPM_P2
2022/06/01 00:02:09;;;;;;;7.22;4.68;;;10.80;99.90;;;;;;5048919;28;20425;-55
2022/06/01 00:04:35;;;;;;;7.28;4.85;;;10.80;99.90;;;;;;5049583;28;20497;-63
2022/06/01 00:07:00;;;;;;;10.15;5.38;;;10.80;99.90;;;;;;5049710;28;20089;-54
2022/06/01 00:09:26;;;;;;;10.60;5.53;;;10.70;99.90;;;;;;5049112;28;20108;-54
2022/06/01 00:11:51;;;;;;;10.68;5.75;;;10.60;99.90;;;;;;5047996;28;20487;-57
2022/06/01 00:14:17;;;;;;;7.47;5.00;;;10.60;99.90;;;;;;5049726;28;20114;-54
2022/06/01 00:16:43;;;;;;;10.82;5.70;;;10.60;99.90;;;;;;5048284;28;20124;-55
2022/06/01 00:19:10;;;;;;;12.63;5.28;;;10.50;99.90;;;;;;5047740;28;20507;-57
2022/06/01 00:22:11;;;;;;;13.20;5.80;;;10.40;99.90;;;;;;5049171;28;20056;-52
2022/06/01 00:24:21;;;;;;;8.85;5.85;;;10.40;99.90;;;;;;5049028;28;20033;-56
2022/06/01 00:26:49;;;;;;;6.55;4.93;;;10.40;99.90;;;;;;5047252;28;20083;-56
2022/06/01 00:29:15;;;;;;;11.88;5.50;;;10.40;99.90;;;;;;5047881;28;20028;-55
2022/06/01 00:31:40;;;;;;;11.30;4.97;;;10.40;99.90;;;;;;5048995;28;20033;-52
2022/06/01 00:34:06;;;;;;;7.10;5.15;;;10.30;99.90;;;;;;5048281;28;20032;-55
2022/06/01 00:36:32;;;;;;;11.63;5.80;;;10.30;99.90;;;;;;5048631;28;20399;-54
2022/06/01 00:38:58;;;;;;;10.10;5.28;;;10.20;99.90;;;;;;5048527;28;20048;-56
2022/06/01 00:41:24;;;;;;;9.18;5.22;;;10.20;99.90;;;;;;5049008;28;20037;-59
2022/06/01 00:43:49;;;;;;;11.63;6.30;;;10.20;99.90;;;;;;5049789;28;20029;-57
2022/06/01 00:46:15;;;;;;;12.18;5.90;;;10.20;99.90;;;;;;5062323;28;20102;-61
2022/06/01 00:48:45;;;;;;;11.95;5.53;;;10.10;99.90;;;;;;5048481;28;20111;-56
2022/06/01 00:51:14;;;;;;;6.97;4.95;;;10.10;99.90;;;;;;5044939;28;20036;-57
2022/06/01 00:53:42;;;;;;;10.38;5.68;;;10.10;99.90;;;;;;5047992;28;20048;-60
2022/06/01 00:56:14;;;;;;;10.70;4.80;;;10.10;99.90;;;;;;5050502;28;20017;-60
2022/06/01 00:58:43;;;;;;;7.97;4.32;;;10.10;99.90;;;;;;5047469;28;20526;-58
2022/06/01 01:01:13;;;;;;;9.10;5.25;;;10.00;99.90;;;;;;5048567;28;20053;-56
2022/06/01 01:03:41;;;;;;;6.43;4.32;;;10.00;99.90;;;;;;5049577;28;20070;-56
2022/06/01 01:06:20;;;;;;;8.85;5.03;;;9.90;99.90;;;;;;5047754;28;20419;-60
2022/06/01 01:08:47;;;;;;;7.07;4.43;;;9.90;99.90;;;;;;5048472;28;20036;-52
2022/06/01 01:11:14;;;;;;;6.97;3.85;;;9.90;99.90;;;;;;5051799;28;20155;-57
2022/06/01 01:13:45;;;;;;;7.20;4.47;;;9.80;99.90;;;;;;5053153;28;20032;-58
2022/06/01 01:16:12;;;;;;;6.88;3.95;;;9.80;99.90;;;;;;5047455;28;20515;-56
2022/06/01 01:18:41;;;;;;;8.93;4.40;;;9.80;99.90;;;;;;5052715;28;20079;-54
2022/06/01 01:21:12;;;;;;;9.48;4.50;;;9.70;99.90;;;;;;5051786;28;20112;-55
2022/06/01 01:23:47;;;;;;;6.57;3.83;;;9.70;99.90;;;;;;5051990;28;20089;-54
2022/06/01 01:26:14;;;;;;;6.38;3.65;;;9.70;99.90;;;;;;5052508;28;20042;-55
2022/06/01 01:28:40;;;;;;;7.93;3.63;;;9.60;99.90;;;;;;5052837;28;20021;-54
2022/06/01 01:31:17;;;;;;;7.40;4.18;;;9.60;99.90;;;;;;5049150;28;20035;-54
2022/06/01 01:33:44;;;;;;;9.02;4.63;;;9.50;99.90;;;;;;5053132;28;20033;-49
2022/06/01 01:36:12;;;;;;;10.75;4.80;;;9.50;99.90;;;;;;5051462;28;20041;-62
2022/06/01 01:38:56;;;;;;;10.90;4.97;;;9.50;99.90;;;;;;5050536;28;20024;-52
2022/06/01 01:41:33;;;;;;;8.48;4.30;;;9.40;99.90;;;;;;5050805;28;20035;-57
2022/06/01 01:44:10;;;;;;;11.77;5.68;;;9.40;99.90;;;;;;5052594;28;20082;-54
2022/06/01 01:46:36;;;;;;;6.30;4.07;;;9.40;99.90;;;;;;5051054;28;20045;-57
2022/06/01 01:49:02;;;;;;;7.20;4.82;;;9.30;99.90;;;;;;5052342;28;20108;-57
2022/06/01 01:51:29;;;;;;;6.75;4.60;;;9.30;99.90;;;;;;5052048;28;20037;-56
2022/06/01 01:53:56;;;;;;;8.38;4.57;;;9.30;99.90;;;;;;5048746;28;20108;-58
2022/06/01 01:56:38;;;;;;;6.63;4.38;;;9.20;99.90;;;;;;5052289;28;20398;-54
2022/06/01 01:59:43;;;;;;;7.47;3.83;;;9.20;99.90;;;;;;5048930;28;20407;-56
2022/06/01 02:02:40;;;;;;;6.05;3.95;;;9.10;99.90;;;;;;5048892;28;20028;-54
2022/06/01 02:08:34;;;;;;;12.30;3.75;;;9.10;99.90;;;;;;5050799;28;20087;-55
2022/06/01 02:14:31;;;;;;;7.13;3.72;;;9.00;99.90;;;;;;5030514;28;20052;-52
2022/06/01 02:17:15;;;;;;;5.00;3.65;;;9.00;99.90;;;;;;5051269;28;20094;-54
2022/06/01 02:20:11;;;;;;;7.97;3.70;;;8.90;99.90;;;;;;5051742;28;20053;-52
2022/06/01 02:22:41;;;;;;;5.50;3.40;;;8.90;99.90;;;;;;5048185;28;20418;-53
2022/06/01 02:25:09;;;;;;;12.30;4.18;;;8.90;99.90;;;;;;5049929;28;20053;-54
2022/06/01 02:27:35;;;;;;;4.65;3.45;;;8.90;99.90;;;;;;5052611;28;20517;-57
2022/06/01 02:30:12;;;;;;;6.13;3.22;;;8.90;99.90;;;;;;5051165;28;20037;-54
2022/06/01 02:32:40;;;;;;;5.30;3.65;;;8.80;99.90;;;;;;5050959;28;20108;-55
2022/06/01 02:35:08;;;;;;;3.95;3.15;;;8.80;99.90;;;;;;5049730;28;20021;-56
2022/06/01 02:37:39;;;;;;;4.72;3.33;;;8.80;99.90;;;;;;5051215;28;20025;-54
2022/06/01 02:40:09;;;;;;;8.95;3.85;;;8.70;99.90;;;;;;5050833;28;20083;-53
2022/06/01 02:42:46;;;;;;;4.97;3.00;;;8.60;99.90;;;;;;5050630;28;20083;-55
2022/06/01 02:45:13;;;;;;;6.90;3.42;;;8.70;99.90;;;;;;5049657;28;20457;-59
2022/06/01 02:47:42;;;;;;;6.60;3.38;;;8.70;99.90;;;;;;5049651;28;20442;-54
2022/06/01 02:50:14;;;;;;;8.85;3.53;;;8.60;99.90;;;;;;5051081;28;20041;-55
2022/06/01 02:52:40;;;;;;;7.53;3.67;;;8.70;99.90;;;;;;5050173;28;20023;-57
2022/06/01 02:55:06;;;;;;;4.35;3.30;;;8.60;99.90;;;;;;5050694;28;20487;-56
2022/06/01 02:57:33;;;;;;;5.75;4.05;;;8.60;99.90;;;;;;5048913;28;20021;-55
2022/06/01 02:59:59;;;;;;;8.32;4.15;;;8.60;99.90;;;;;;5052222;28;20021;-56
2022/06/01 03:02:25;;;;;;;4.30;3.20;;;8.70;99.90;;;;;;5049502;28;20025;-55
2022/06/01 03:04:52;;;;;;;9.50;3.30;;;8.70;99.90;;;;;;5071999;22;20044;-55
2022/06/01 03:07:18;;;;;;;8.30;2.97;;;8.70;99.90;;;;;;5068077;28;20024;-57
2022/06/01 03:09:44;;;;;;;5.55;3.20;;;8.70;99.90;;;;;;5069612;28;20142;-54
2022/06/01 03:12:10;;;;;;;10.27;3.53;;;8.60;99.90;;;;;;5072885;28;20115;-58
2022/06/01 03:14:39;;;;;;;6.47;3.30;;;8.60;99.90;;;;;;5078016;28;20155;-56
2022/06/01 03:17:06;;;;;;;6.68;4.40;;;8.60;99.90;;;;;;5070179;28;20069;-55
2022/06/01 03:19:31;;;;;;;6.32;4.05;;;8.60;99.90;;;;;;5069277;28;20044;-57
2022/06/01 03:21:57;;;;;;;9.70;4.10;;;8.60;99.90;;;;;;5069562;28;20036;-55
2022/06/01 03:24:23;;;;;;;8.10;3.75;;;8.60;99.90;;;;;;5067827;28;20050;-57
2022/06/01 03:26:48;;;;;;;8.50;3.72;;;8.70;99.90;;;;;;5069174;28;20036;-58
2022/06/01 03:29:14;;;;;;;8.70;4.30;;;8.80;99.90;;;;;;5068319;28;20028;-57
2022/06/01 03:31:40;;;;;;;9.50;3.90;;;8.80;99.90;;;;;;5067484;28;20028;-58
2022/06/01 03:34:06;;;;;;;8.55;3.78;;;8.90;99.90;;;;;;5067852;28;20106;-58
2022/06/01 03:36:32;;;;;;;7.97;3.47;;;8.90;99.90;;;;;;5068082;28;20517;-54
2022/06/01 03:38:58;;;;;;;6.15;3.78;;;9.00;99.90;;;;;;5068299;28;20150;-57
2022/06/01 03:41:27;;;;;;;7.40;3.17;;;9.00;99.90;;;;;;5062824;28;20025;-59
2022/06/01 03:46:38;;;;;;;5.10;3.30;;;9.00;99.90;;;;;;5067337;28;20513;-57
2022/06/01 03:49:04;;;;;;;6.55;3.22;;;9.00;99.90;;;;;;5065385;28;20131;-57
2022/06/01 03:51:29;;;;;;;5.72;3.28;;;9.00;99.90;;;;;;5073927;28;20170;-57
2022/06/01 03:53:55;;;;;;;7.93;3.47;;;8.90;99.90;;;;;;5071000;28;20028;-58
2022/06/01 03:56:22;;;;;;;7.18;3.00;;;9.00;99.90;;;;;;5064345;28;20017;-57
2022/06/01 03:58:49;;;;;;;4.45;2.92;;;9.10;99.90;;;;;;5067855;28;20386;-55
2022/06/01 04:01:15;;;;;;;4.90;3.08;;;9.20;99.90;;;;;;5065467;28;20044;-57
2022/06/01 04:03:41;;;;;;;6.57;3.53;;;9.10;99.90;;;;;;5065241;28;20037;-57
2022/06/01 04:06:06;;;;;;;4.18;3.40;;;9.20;99.90;;;;;;5068782;28;20029;-55
2022/06/01 04:08:32;;;;;;;4.10;3.17;;;9.30;99.90;;;;;;5067068;28;20409;-56
2022/06/01 04:10:57;;;;;;;6.22;3.70;;;9.30;99.90;;;;;;5073636;28;20029;-57
2022/06/01 04:13:26;;;;;;;9.25;3.80;;;9.40;99.90;;;;;;5067640;28;20035;-57
2022/06/01 04:15:52;;;;;;;9.05;3.70;;;9.50;99.90;;;;;;5069726;28;20520;-58
2022/06/01 04:18:17;;;;;;;4.13;3.72;;;9.60;99.90;;;;;;5074486;28;20028;-58
2022/06/01 04:20:43;;;;;;;6.47;3.30;;;9.60;99.90;;;;;;5067751;28;20482;-58
2022/06/01 04:23:09;;;;;;;9.45;3.65;;;9.70;99.90;;;;;;5067023;28;20547;-58
2022/06/01 04:25:35;;;;;;;6.35;3.10;;;9.70;99.90;;;;;;5068892;28;20044;-58
2022/06/01 04:28:00;;;;;;;7.88;2.95;;;9.80;99.90;;;;;;5076115;28;20028;-59
2022/06/01 04:30:27;;;;;;;9.10;3.33;;;9.80;99.90;;;;;;5065290;28;20036;-58
2022/06/01 04:32:53;;;;;;;4.82;3.10;;;9.80;99.90;;;;;;5066122;28;20040;-59
2022/06/01 04:35:21;;;;;;;5.40;3.20;;;9.90;99.90;;;;;;5073939;28;20462;-59
2022/06/01 04:37:47;;;;;;;5.22;3.28;;;9.90;99.90;;;;;;5071032;28;20482;-58
2022/06/01 04:40:13;;;;;;;5.10;2.67;;;9.90;99.90;;;;;;5068064;28;20090;-55
2022/06/01 04:42:39;;;;;;;3.00;2.40;;;10.00;99.90;;;;;;5068315;28;20431;-56
2022/06/01 04:45:07;;;;;;;3.30;2.90;;;10.00;99.90;;;;;;5066894;28;20433;-56
2022/06/01 04:47:32;;;;;;;5.97;3.00;;;10.00;99.90;;;;;;5069758;28;20077;-57
2022/06/01 04:49:58;;;;;;;7.93;2.67;;;10.10;99.90;;;;;;5069429;28;20020;-55
2022/06/01 04:52:24;;;;;;;4.45;2.92;;;10.10;99.90;;;;;;5068827;28;20020;-58
2022/06/01 04:54:49;;;;;;;5.40;3.17;;;10.10;99.90;;;;;;5072205;28;20024;-57
2022/06/01 04:57:15;;;;;;;7.68;3.33;;;10.10;99.90;;;;;;5068499;28;20024;-56
2022/06/01 04:59:40;;;;;;;3.70;2.78;;;10.20;99.90;;;;;;5063204;28;20182;-56
2022/06/01 05:02:06;;;;;;;3.55;2.63;;;10.20;99.90;;;;;;5065450;28;20029;-55
2022/06/01 05:04:32;;;;;;;6.20;3.20;;;10.30;99.90;;;;;;5063766;28;20025;-55
2022/06/01 05:06:58;;;;;;;4.40;2.85;;;10.40;99.90;;;;;;5064270;28;20132;-57
2022/06/01 05:09:24;;;;;;;9.63;3.25;;;10.30;99.90;;;;;;5066697;28;20521;-57
2022/06/01 05:11:50;;;;;;;12.05;3.58;;;10.50;99.90;;;;;;5066780;28;20495;-58
2022/06/01 05:14:16;;;;;;;4.47;3.25;;;10.50;99.90;;;;;;5061751;28;20424;-58
2022/06/01 05:16:42;;;;;;;4.05;3.10;;;10.50;99.90;;;;;;5067217;28;20033;-58
2022/06/01 05:19:07;;;;;;;8.77;3.55;;;10.60;99.90;;;;;;5061690;28;20061;-57
2022/06/01 05:21:33;;;;;;;6.10;2.92;;;10.70;99.90;;;;;;5066899;28;20469;-55
2022/06/01 05:23:58;;;;;;;7.53;3.03;;;10.70;99.90;;;;;;5066001;28;20532;-59
2022/06/01 05:26:24;;;;;;;4.38;3.08;;;10.80;99.90;;;;;;5065110;28;20024;-58
2022/06/01 05:28:50;;;;;;;7.93;3.10;;;10.80;99.90;;;;;;5065500;28;20072;-55
2022/06/01 05:31:18;;;;;;;5.07;3.13;;;10.90;99.90;;;;;;5065024;28;21835;-56
2022/06/01 05:33:44;;;;;;;8.20;3.83;;;10.90;99.90;;;;;;5071002;28;20024;-57
2022/06/01 05:36:11;;;;;;;9.80;3.28;;;11.00;99.90;;;;;;5069232;28;20024;-55
2022/06/01 05:38:36;;;;;;;6.35;4.50;;;11.00;99.90;;;;;;5068492;28;20020;-57
2022/06/01 05:41:03;;;;;;;6.60;3.33;;;11.20;99.90;;;;;;5067602;28;20574;-55
2022/06/01 05:43:28;;;;;;;6.63;3.83;;;11.20;99.90;;;;;;5065094;28;20032;-55
2022/06/01 05:45:54;;;;;;;8.63;3.53;;;11.20;99.90;;;;;;5068515;28;20391;-55
2022/06/01 05:48:21;;;;;;;6.20;3.30;;;11.20;99.90;;;;;;5067630;28;20056;-57
2022/06/01 05:50:47;;;;;;;4.63;2.80;;;11.30;99.90;;;;;;5067133;28;20504;-55
2022/06/01 05:53:13;;;;;;;4.60;2.55;;;11.30;99.90;;;;;;5067192;28;20120;-55
2022/06/01 05:55:39;;;;;;;8.32;2.75;;;11.40;99.90;;;;;;5067974;28;20028;-58
2022/06/01 05:58:32;;;;;;;4.35;3.20;;;11.40;99.90;;;;;;5072210;28;20024;-55
2022/06/01 06:01:03;;;;;;;10.60;2.80;;;11.50;99.90;;;;;;5066373;28;20048;-58
2022/06/01 06:03:28;;;;;;;4.40;2.53;;;11.50;99.90;;;;;;5071336;28;20402;-57
2022/06/01 06:06:14;;;;;;;8.50;2.72;;;11.60;99.90;;;;;;5070932;28;20039;-56
2022/06/01 06:08:46;;;;;;;7.38;2.83;;;11.70;99.90;;;;;;5071307;28;20388;-57
2022/06/01 06:11:14;;;;;;;5.50;2.65;;;11.70;99.90;;;;;;5071244;28;20058;-55
2022/06/01 06:13:40;;;;;;;8.40;2.28;;;11.80;99.90;;;;;;5066278;28;20036;-58
2022/06/01 06:16:06;;;;;;;5.15;2.33;;;11.90;99.90;;;;;;5070084;28;20029;-57
2022/06/01 06:18:32;;;;;;;6.63;2.47;;;12.00;99.90;;;;;;5068213;28;20029;-56
2022/06/01 06:20:57;;;;;;;4.10;2.53;;;12.10;99.90;;;;;;5072090;28;20032;-55
2022/06/01 06:23:23;;;;;;;4.35;2.35;;;12.10;99.90;;;;;;5071747;28;20036;-57
2022/06/01 06:25:49;;;;;;;5.03;2.72;;;12.10;99.90;;;;;;5067952;28;20040;-56
2022/06/01 06:28:15;;;;;;;10.80;2.90;;;12.20;99.90;;;;;;5068442;28;20032;-59
2022/06/01 06:30:41;;;;;;;4.72;2.55;;;12.30;99.90;;;;;;5069666;28;20060;-56
2022/06/01 06:33:07;;;;;;;5.50;2.60;;;12.40;99.90;;;;;;5071277;28;20103;-58
2022/06/01 06:35:33;;;;;;;3.58;2.83;;;12.50;99.90;;;;;;5071476;28;20108;-55
2022/06/01 06:37:59;;;;;;;8.90;2.92;;;12.60;99.90;;;;;;5070623;28;20028;-59
2022/06/01 06:40:26;;;;;;;6.80;3.38;;;12.70;99.90;;;;;;5065762;28;20036;-57
2022/06/01 06:42:53;;;;;;;4.68;2.53;;;12.70;99.90;;;;;;5067188;28;20035;-55
2022/06/01 06:45:22;;;;;;;8.50;2.33;;;12.80;99.90;;;;;;5069249;28;20055;-59
2022/06/01 06:47:48;;;;;;;7.35;3.03;;;12.80;99.90;;;;;;5067525;28;20622;-59
2022/06/01 06:50:15;;;;;;;7.97;2.08;;;12.90;99.90;;;;;;5060164;28;20124;-59
2022/06/01 06:52:41;;;;;;;4.25;2.20;;;13.00;99.90;;;;;;5066474;28;20052;-59
2022/06/01 06:55:08;;;;;;;6.18;2.42;;;13.20;99.90;;;;;;5069754;28;20099;-58
2022/06/01 06:57:34;;;;;;;5.82;2.50;;;13.30;99.90;;;;;;5070792;28;20048;-58
2022/06/01 07:00:00;;;;;;;13.57;3.38;;;13.40;99.90;;;;;;5069592;28;20115;-58
2022/06/01 07:02:25;;;;;;;7.03;2.85;;;13.50;99.90;;;;;;5068279;28;20095;-58
2022/06/01 07:04:51;;;;;;;6.25;2.25;;;13.50;99.90;;;;;;5065548;28;20028;-54
2022/06/01 07:07:16;;;;;;;9.43;2.25;;;13.60;99.90;;;;;;5068030;28;20108;-57
2022/06/01 07:09:42;;;;;;;3.58;2.22;;;13.60;99.90;;;;;;5068099;28;20112;-58
2022/06/01 07:12:09;;;;;;;5.75;2.20;;;13.70;99.90;;;;;;5059652;28;21257;-58
2022/06/01 07:14:35;;;;;;;7.72;2.03;;;13.80;99.90;;;;;;5062059;28;20075;-57
2022/06/01 07:17:01;;;;;;;5.65;2.45;;;13.80;99.90;;;;;;5061649;28;20511;-58
2022/06/01 07:19:27;;;;;;;2.40;1.25;;;13.90;99.90;;;;;;5053433;28;20036;-59
2022/06/01 07:21:54;;;;;;;5.15;1.70;;;14.00;99.90;;;;;;5055259;28;20044;-58
2022/06/01 07:24:20;;;;;;;3.42;1.67;;;14.00;99.90;;;;;;5057228;28;20044;-59
2022/06/01 07:26:46;;;;;;;6.60;2.50;;;14.00;99.90;;;;;;5057748;28;20047;-58
2022/06/01 07:29:14;;;;;;;6.63;1.88;;;14.10;99.90;;;;;;5056169;28;20036;-58
2022/06/01 07:31:40;;;;;;;4.75;1.85;;;14.10;99.90;;;;;;5059451;28;20031;-58
2022/06/01 07:34:06;;;;;;;6.18;1.30;;;14.10;99.90;;;;;;5057160;28;20036;-58
2022/06/01 07:36:32;;;;;;;5.78;1.60;;;14.10;99.90;;;;;;5052247;28;20433;-57
2022/06/01 07:44:53;;;;;;;4.20;1.45;;;14.20;99.90;;;;;;5060314;28;20047;-57
2022/06/01 07:47:19;;;;;;;3.90;1.75;;;14.30;99.90;;;;;;5063643;28;20108;-57
2022/06/01 07:49:45;;;;;;;7.22;1.77;;;14.30;99.90;;;;;;5060672;28;20052;-57
2022/06/01 07:52:12;;;;;;;4.22;1.30;;;14.50;99.90;;;;;;5060961;28;20059;-57
2022/06/01 07:54:40;;;;;;;3.47;1.20;;;14.50;99.90;;;;;;5067342;28;20501;-58
2022/06/01 07:57:06;;;;;;;1.88;1.10;;;14.60;99.90;;;;;;5068443;28;20074;-56
2022/06/01 07:59:32;;;;;;;5.53;1.33;;;14.60;99.90;;;;;;5067281;28;20032;-57
2022/06/01 08:01:58;;;;;;;7.38;1.45;;;14.60;99.90;;;;;;5061047;28;20094;-57
2022/06/01 08:04:24;;;;;;;3.95;1.30;;;14.70;99.90;;;;;;5066373;28;20053;-58
2022/06/01 08:06:50;;;;;;;6.72;1.67;;;14.70;99.90;;;;;;5060578;28;20037;-57
2022/06/01 08:09:16;;;;;;;7.90;1.23;;;14.60;99.90;;;;;;5058877;28;20062;-56
2022/06/01 08:14:26;;;;;;;4.95;2.90;;;14.70;99.90;;;;;;5063607;28;20047;-55
2022/06/01 08:16:51;;;;;;;3.75;1.55;;;14.70;99.90;;;;;;5061958;28;20474;-59
2022/06/01 08:19:17;;;;;;;2.92;1.60;;;14.50;99.90;;;;;;5057722;28;20114;-56
2022/06/01 08:21:44;;;;;;;6.65;1.60;;;14.60;99.90;;;;;;5059941;28;20043;-55
2022/06/01 08:24:10;;;;;;;5.30;1.30;;;14.60;99.90;;;;;;5055600;28;20100;-58
2022/06/01 08:26:36;;;;;;;8.73;1.55;;;14.60;99.90;;;;;;5058143;28;20115;-60
2022/06/01 08:29:02;;;;;;;7.00;1.58;;;14.70;99.90;;;;;;5058976;28;20123;-59
2022/06/01 08:31:30;;;;;;;8.23;3.83;;;14.70;99.90;;;;;;5059579;28;20035;-58
2022/06/01 08:33:56;;;;;;;6.68;1.73;;;14.80;99.90;;;;;;5058893;28;20166;-58
2022/06/01 08:36:22;;;;;;;11.93;2.15;;;15.10;99.90;;;;;;5059801;28;20024;-57
2022/06/01 08:38:47;;;;;;;5.53;1.60;;;15.20;99.90;;;;;;5056298;28;20033;-57
2022/06/01 08:41:14;;;;;;;4.45;1.63;;;15.20;99.90;;;;;;5064419;28;20037;-63
2022/06/01 08:43:49;;;;;;;4.15;1.77;;;15.20;99.90;;;;;;5058649;28;20055;-60
2022/06/01 08:46:16;;;;;;;6.93;2.08;;;15.20;99.90;;;;;;5058851;28;20024;-58
2022/06/01 08:48:46;;;;;;;5.97;1.65;;;15.30;99.90;;;;;;5060428;28;20051;-58
2022/06/01 08:51:12;;;;;;;2.03;1.33;;;15.40;99.90;;;;;;5057303;28;20028;-58
2022/06/01 08:53:38;;;;;;;8.57;2.05;;;15.50;99.90;;;;;;5053605;28;20028;-58
2022/06/01 08:56:25;;;;;;;8.13;1.95;;;15.60;99.90;;;;;;5058608;28;20394;-58
2022/06/01 08:59:28;;;;;;;4.10;1.50;;;15.60;99.90;;;;;;5057728;28;20020;-58
2022/06/01 09:02:26;;;;;;;6.95;2.22;;;15.80;99.90;;;;;;5062088;28;20107;-58
2022/06/01 09:08:24;;;;;;;5.68;1.70;;;16.00;99.90;;;;;;5019977;28;20072;-58
2022/06/01 09:11:05;;;;;;;5.68;1.60;;;16.00;99.90;;;;;;5021205;28;20092;-60
2022/06/01 09:13:47;;;;;;;7.45;1.80;;;16.20;99.90;;;;;;5020708;28;20457;-61
2022/06/01 09:16:23;;;;;;;4.50;1.42;;;16.30;99.90;;;;;;5019176;28;20071;-61
2022/06/01 09:18:51;;;;;;;3.00;1.40;;;16.10;99.90;;;;;;5021877;28;20044;-61
2022/06/01 09:24:33;;;;;;;1.75;1.13;;;15.80;99.90;;;;;;5020219;28;20048;-61
2022/06/01 09:27:11;;;;;;;5.18;1.92;;;16.10;99.90;;;;;;5020068;28;20029;-57
2022/06/01 09:29:49;;;;;;;7.40;1.50;;;16.20;99.90;;;;;;5021137;28;20029;-59
2022/06/01 09:32:32;;;;;;;5.10;1.42;;;16.40;99.90;;;;;;5022767;28;20499;-58
2022/06/01 09:35:09;;;;;;;7.35;2.35;;;16.80;99.90;;;;;;5023882;28;20021;-57
2022/06/01 09:37:40;;;;;;;5.35;1.20;;;16.70;99.90;;;;;;5024240;28;20029;-59
2022/06/01 09:40:24;;;;;;;5.18;1.80;;;16.50;99.90;;;;;;5023798;28;20026;-63
2022/06/01 09:42:52;;;;;;;3.10;1.23;;;16.50;99.90;;;;;;5041427;28;20029;-58
2022/06/01 09:45:28;;;;;;;3.97;1.33;;;16.60;99.90;;;;;;5025612;28;20052;-60
2022/06/01 09:48:13;;;;;;;4.55;1.23;;;17.00;99.90;;;;;;5029648;28;20092;-54
2022/06/01 09:50:42;;;;;;;3.67;1.27;;;17.20;99.90;;;;;;5032506;28;20046;-62
2022/06/01 09:53:11;;;;;;;4.38;1.25;;;17.40;99.90;;;;;;5026255;28;20026;-60
2022/06/01 09:55:51;;;;;;;3.33;1.08;;;17.30;99.90;;;;;;5032423;28;20109;-57
2022/06/01 10:07:06;;;;;;;5.63;1.30;;;17.50;99.90;;;;;;5028163;28;20092;-60
2022/06/01 10:09:33;;;;;;;1.88;1.23;;;17.60;99.90;;;;;;5025765;28;20092;-58
2022/06/01 10:12:14;;;;;;;3.13;1.30;;;17.70;99.90;;;;;;5031265;28;20087;-59
2022/06/01 10:14:44;;;;;;;2.35;1.30;;;17.70;99.90;;;;;;5031687;28;20467;-58
2022/06/01 10:17:37;;;;;;;3.38;1.02;;;17.80;99.90;;;;;;5031286;28;20071;-59
2022/06/01 10:21:00;;;;;;;6.28;1.80;;;17.70;99.90;;;;;;5029979;28;20025;-58
2022/06/01 10:24:08;;;;;;;7.88;1.13;;;17.50;99.90;;;;;;4950576;29;20039;-57
2022/06/01 10:26:37;;;;;;;4.97;0.98;;;17.50;99.90;;;;;;4937961;28;20050;-56
2022/06/01 10:29:07;;;;;;;3.63;0.90;;;17.30;99.90;;;;;;5012511;28;20751;-58
2022/06/01 10:32:15;;;;;;;3.63;1.27;;;17.40;99.90;;;;;;5028359;28;20030;-58
2022/06/01 10:34:45;;;;;;;7.43;1.02;;;17.30;99.90;;;;;;4948704;28;20028;-56
2022/06/01 10:37:23;;;;;;;2.35;0.98;;;17.40;99.90;;;;;;5018284;28;20041;-57
2022/06/01 10:40:03;;;;;;;4.90;1.50;;;17.20;99.90;;;;;;5031355;28;20053;-57
2022/06/01 10:45:20;;;;;;;2.78;1.10;;;17.40;99.90;;;;;;5030640;28;20623;-55
2022/06/01 10:47:48;;;;;;;3.08;1.33;;;17.50;99.90;;;;;;5029489;28;20029;-56
2022/06/01 10:50:18;;;;;;;2.78;0.90;;;17.90;99.90;;;;;;5030425;28;20427;-59
2022/06/01 10:52:49;;;;;;;4.32;1.13;;;18.40;99.90;;;;;;5026161;28;20026;-55
2022/06/01 10:55:28;;;;;;;1.15;0.93;;;18.50;99.90;;;;;;5030297;28;20053;-57
2022/06/01 10:57:57;;;;;;;5.90;1.13;;;19.20;99.90;;;;;;5030285;28;20033;-60
2022/06/01 11:00:28;;;;;;;3.92;1.00;;;19.60;99.90;;;;;;5027594;28;20033;-59
2022/06/01 11:02:57;;;;;;;5.47;1.15;;;19.60;99.90;;;;;;5030237;28;20033;-58
2022/06/01 11:06:02;;;;;;;3.63;1.20;;;19.20;99.90;;;;;;5029822;28;20022;-55
2022/06/01 11:08:40;;;;;;;3.22;1.30;;;19.00;99.90;;;;;;5029277;28;20037;-57
2022/06/01 11:11:29;;;;;;;1.05;0.88;;;18.70;99.90;;;;;;5030323;28;20033;-59
2022/06/01 11:14:06;;;;;;;4.20;1.15;;;19.00;99.90;;;;;;5030770;28;20514;-63
2022/06/01 11:16:56;;;;;;;1.73;0.90;;;18.70;99.90;;;;;;5030467;28;20021;-59
2022/06/01 11:19:46;;;;;;;4.65;1.35;;;18.70;99.90;;;;;;5028986;28;20064;-61
2022/06/01 11:22:42;;;;;;;2.78;1.13;;;18.40;99.90;;;;;;5029828;28;20022;-60
2022/06/01 11:25:17;;;;;;;1.83;1.15;;;18.40;99.90;;;;;;5025736;28;20115;-60
2022/06/01 11:27:59;;;;;;;2.97;0.95;;;18.50;99.90;;;;;;5029578;28;20029;-57
2022/06/01 11:31:04;;;;;;;2.35;1.25;;;18.90;99.90;;;;;;5025969;28;20037;-55
2022/06/01 11:33:39;;;;;;;2.63;1.10;;;19.40;99.90;;;;;;5014667;28;20047;-60
2022/06/01 11:36:11;;;;;;;3.47;1.20;;;19.60;99.90;;;;;;5027599;28;20048;-57
2022/06/01 11:38:43;;;;;;;2.85;1.20;;;19.40;99.90;;;;;;5029024;28;20032;-59
2022/06/01 11:41:35;;;;;;;3.30;0.85;;;19.30;99.90;;;;;;5029891;28;20033;-55
2022/06/01 11:44:17;;;;;;;4.22;1.02;;;19.20;99.90;;;;;;5027331;28;20025;-55
2022/06/01 11:46:53;;;;;;;3.60;1.27;;;19.40;99.90;;;;;;5026150;28;20033;-57
2022/06/01 11:49:41;;;;;;;4.47;0.90;;;19.10;99.90;;;;;;5028550;28;20156;-58
2022/06/01 11:52:31;;;;;;;1.77;1.25;;;19.20;99.90;;;;;;5030042;28;20085;-59
2022/06/01 11:55:15;;;;;;;3.88;1.17;;;19.00;99.90;;;;;;5026507;28;20076;-55
2022/06/01 11:58:07;;;;;;;2.65;1.08;;;18.90;99.90;;;;;;5023030;28;20029;-57
2022/06/01 12:00:34;;;;;;;4.25;1.10;;;19.20;99.90;;;;;;5017990;28;20466;-59
2022/06/01 12:03:17;;;;;;;6.95;1.48;;;19.80;99.90;;;;;;5026762;28;20048;-57
2022/06/01 12:06:04;;;;;;;3.55;1.10;;;20.50;99.90;;;;;;5029796;28;20026;-54
2022/06/01 12:08:44;;;;;;;1.40;1.10;;;20.80;99.90;;;;;;5029310;28;20029;-54
2022/06/01 12:11:32;;;;;;;9.57;1.35;;;20.20;99.90;;;;;;5027733;28;20052;-62
2022/06/01 12:13:57;;;;;;;9.52;2.55;;;19.60;99.90;;;;;;5024658;28;20028;-58
2022/06/01 12:16:26;;;;;;;5.07;1.20;;;19.20;99.90;;;;;;5029410;28;20399;-58
2022/06/01 12:19:19;;;;;;;3.42;1.33;;;19.40;99.90;;;;;;5028657;28;20037;-57
2022/06/01 12:21:44;;;;;;;1.90;0.90;;;19.70;99.90;;;;;;5021724;28;20052;-59
2022/06/01 12:30:00;;;;;;;1.10;0.80;;;20.20;99.90;;;;;;5028599;28;20068;-58
2022/06/01 12:32:28;;;;;;;1.70;1.00;;;20.20;99.90;;;;;;5027209;28;20029;-59
2022/06/01 12:35:20;;;;;;;5.40;1.10;;;20.70;99.90;;;;;;5028420;28;20075;-61
2022/06/01 12:37:58;;;;;;;3.28;0.80;;;20.50;99.90;;;;;;5022613;28;20052;-59
2022/06/01 12:40:25;;;;;;;1.08;0.98;;;20.70;99.90;;;;;;5029009;28;20020;-61
2022/06/01 12:42:58;;;;;;;1.77;0.85;;;21.10;99.90;;;;;;5027273;28;20084;-57
2022/06/01 12:45:28;;;;;;;3.83;1.50;;;21.20;99.90;;;;;;5024856;28;20025;-60
2022/06/01 12:47:58;;;;;;;3.58;0.90;;;21.40;99.90;;;;;;5025518;28;20014;-62
2022/06/01 12:50:27;;;;;;;2.33;0.90;;;21.40;99.90;;;;;;5028284;28;20422;-59
2022/06/01 12:53:13;;;;;;;1.73;0.77;;;21.60;99.90;;;;;;5028410;28;20021;-60
2022/06/01 12:55:40;;;;;;;5.78;0.90;;;21.40;99.60;;;;;;5028469;28;20025;-62
2022/06/01 12:58:26;;;;;;;4.57;0.88;;;21.20;99.90;;;;;;5028850;28;20029;-61
2022/06/01 13:00:55;;;;;;;1.50;0.85;;;21.10;99.90;;;;;;5027873;28;20056;-57
2022/06/01 13:03:24;;;;;;;4.47;0.70;;;21.60;99.90;;;;;;5025499;28;20471;-63
2022/06/01 13:05:53;;;;;;;2.35;0.90;;;22.00;99.90;;;;;;5026943;28;20036;-59
2022/06/01 13:08:26;;;;;;;0.85;0.68;;;22.10;99.90;;;;;;5047928;28;20473;-58
2022/06/01 13:10:52;;;;;;;3.67;0.88;;;21.80;98.60;;;;;;5048695;28;20025;-63
2022/06/01 13:13:23;;;;;;;4.63;1.00;;;21.70;97.90;;;;;;5046118;28;20029;-62
2022/06/01 13:16:07;;;;;;;3.95;0.88;;;21.20;98.00;;;;;;5045857;28;20036;-60
2022/06/01 13:18:39;;;;;;;3.65;0.75;;;20.80;98.70;;;;;;5047769;28;20047;-61
2022/06/01 13:21:11;;;;;;;8.20;1.02;;;20.30;99.10;;;;;;5047333;28;20060;-59
2022/06/01 13:23:49;;;;;;;1.80;1.23;;;20.10;99.30;;;;;;5041765;28;20029;-61
2022/06/01 13:26:26;;;;;;;4.32;0.75;;;19.70;99.30;;;;;;5048062;28;20021;-60
2022/06/01 13:28:52;;;;;;;3.25;0.70;;;19.60;99.90;;;;;;5041551;28;20048;-61
2022/06/01 13:31:17;;;;;;;2.90;1.20;;;19.70;99.90;;;;;;5047491;28;20439;-59
2022/06/01 13:33:44;;;;;;;4.63;0.90;;;19.80;99.90;;;;;;5042777;28;20503;-58
2022/06/01 13:36:25;;;;;;;7.78;1.23;;;20.00;99.90;;;;;;5049204;28;20025;-60
2022/06/01 13:38:50;;;;;;;9.73;1.98;;;20.10;99.90;;;;;;5047949;28;20039;-58
2022/06/01 13:41:33;;;;;;;2.47;0.95;;;19.80;99.90;;;;;;5046942;28;20037;-61
2022/06/01 13:43:58;;;;;;;9.35;1.10;;;19.50;99.90;;;;;;5044917;28;20033;-61
2022/06/01 13:46:35;;;;;;;2.95;1.10;;;19.50;99.90;;;;;;5046575;28;20495;-60
2022/06/01 13:49:03;;;;;;;1.23;0.77;;;19.30;99.90;;;;;;5046917;28;20143;-57
2022/06/01 13:51:54;;;;;;;1.90;0.85;;;19.20;99.90;;;;;;5047423;28;20025;-58